Thunder radar more information blitzortung!


Radar de pluja more information rain snow radar


Visita la nostra xarxa de llocs de meteo:

Template documentation
and downloads

And another site



No particular awareness of the weather is required.    There are no Weather-warnings

Pagina Historial Weather Underground text

Diari Resum February 13, 2016 Unitats:  Mètric    Imperial   Tant
« Previous Dia
SegĂźent Dia »
Diari Setmana Mensual Anual Personalitzada
  Maxima: Minima: Media:
Temperatura: -17.8 °C -11.1 °C -7.3 °C
Punt de rosada: -17.8 °C -14.1 °C -13 °C
Humitat: Humidity % 41 % 52 %
Wind Speed: 0 km/h 3.1 km/h 14.8 km/h
RĂ fegues de vent: 0 km/h - -
Vent:- - WSW
Pression baro: 0 hPa 33247.1 hPa -
Precipitacions: 76.2 mm    
Historical Graphs
 
 
Dades de taula per February 13, 2016
Temps Temperatura Punt de rosada Pression baro Vent Wind Speed RĂ fegues de vent Humitat Rainfall Rate (Hourly)
-17.8 °C -17.8 °C 0 hPa Calm     Humidity % 0 mm
00:00 -9.5 °C -12.2 °C 33992.1 hPa NW 3.1 km/h   73 % 0 mm
10:46 -7.9 °C -11.3 °C 33247.1 hPa WSW 9 km/h 9 km/h 67 % 0 mm
10:51 -7.5 °C -11.3 °C 33958.2 hPa WSW 15 km/h 15 km/h 64 % 0 mm
10:56 -7.4 °C -11.4 °C 33958.2 hPa WSW 15 km/h 15 km/h 63 % 0 mm
11:01 -7.4 °C -11.5 °C 33958.2 hPa SW 15 km/h 15 km/h 62 % 0 mm
11:06 -7.2 °C -11.5 °C 33992.1 hPa SW 25.9 km/h 25.9 km/h 61 % 0 mm
11:11 -7.1 °C -11.5 °C 33992.1 hPa WSW 17.9 km/h 17.9 km/h 60 % 0 mm
11:16 -6.9 °C -11.4 °C 33992.1 hPa WSW 17.9 km/h 17.9 km/h 59 % 0 mm
11:21 -6.8 °C -11.8 °C 33992.1 hPa WSW 17.9 km/h 17.9 km/h 56 % 0 mm
11:26 -6.7 °C -12.1 °C 33992.1 hPa West 26.9 km/h 26.9 km/h 54 % 0 mm
11:31 -6.8 °C -12.1 °C 33992.1 hPa West 15 km/h 15 km/h 54 % 0 mm
11:36 -6.7 °C -11.9 °C 33992.1 hPa West 20.9 km/h 20.9 km/h 55 % 0 mm
11:41 -6.6 °C -11.7 °C 33992.1 hPa North 6 km/h 6.3 km/h 55 % 0 mm
11:46 -6.6 °C -11.7 °C 33992.1 hPa SW 15 km/h 15 km/h 55 % 0 mm
11:51 -6.4 °C -11.6 °C 33992.1 hPa WSW 9 km/h 9 km/h 55 % 0 mm
11:56 -6.3 °C -11.6 °C 33992.1 hPa WSW 9 km/h 9 km/h 55 % 0 mm
12:01 -6.2 °C -11.6 °C 33992.1 hPa WNW 15 km/h 15 km/h 54 % 0 mm
12:06 -6.2 °C -11.7 °C 33992.1 hPa West 9 km/h 9 km/h 53 % 0 mm
12:11 -6.2 °C -11.9 °C 33992.1 hPa West 6 km/h 6.8 km/h 52 % 0 mm
12:16 -6.2 °C -11.8 °C 33992.1 hPa NNW 11.9 km/h 11.9 km/h 52 % 0 mm
12:21 -6.3 °C -12.1 °C 33958.2 hPa SW 11.9 km/h 11.9 km/h 51 % 0 mm
12:26 -6.2 °C -12.2 °C 33958.2 hPa WNW 15 km/h 15 km/h 50 % 0 mm
12:36 -6.3 °C -12.1 °C 33958.2 hPa SW 9 km/h 9 km/h 51 % 0 mm
12:41 -6.3 °C -12.3 °C 33958.2 hPa WSW 9 km/h 9 km/h 50 % 0 mm
12:46 -6.2 °C -12.2 °C 33958.2 hPa WSW 8 km/h 10.3 km/h 50 % 0 mm
12:51 -6.3 °C -12.3 °C 33958.2 hPa SW 11.9 km/h 11.9 km/h 50 % 0 mm
12:56 -6.2 °C -12.2 °C 33958.2 hPa WSW 15 km/h 15 km/h 50 % 0 mm
13:02 -6 °C -12.4 °C 33958.2 hPa WSW 14.5 km/h 14.5 km/h 48 % 0 mm
13:07 -5.9 °C -12.3 °C 33924.3 hPa SW 9 km/h 9 km/h 48 % 0 mm
13:12 -5.9 °C -12.3 °C 33924.3 hPa NNW 15.3 km/h 15.3 km/h 48 % 0 mm
13:17 -5.9 °C -12.4 °C 33924.3 hPa WSW 23.8 km/h 23.8 km/h 47 % 0 mm
13:22 -5.7 °C -12.3 °C 33924.3 hPa WSW 15.3 km/h 15.3 km/h 47 % 0 mm
13:27 -5.7 °C -12.6 °C 33924.3 hPa SSE 29.8 km/h 29.8 km/h 45 % 0 mm
13:32 -5.8 °C -12.9 °C 33924.3 hPa SW 23.8 km/h 23.8 km/h 44 % 0 mm
13:37 -5.9 °C -13 °C 33924.3 hPa SW 20.9 km/h 20.9 km/h 44 % 0 mm
13:42 -5.8 °C -12.9 °C 33924.3 hPa SW 17.9 km/h 17.9 km/h 44 % 0 mm
13:47 -5.8 °C -12.9 °C 33924.3 hPa SW 15.3 km/h 15.3 km/h 44 % 0 mm
13:52 -5.7 °C -12.8 °C 33924.3 hPa WSW 20.9 km/h 20.9 km/h 44 % 0 mm
13:57 -5.7 °C -12.9 °C 33924.3 hPa SW 23.8 km/h 23.8 km/h 43 % 0 mm
14:02 -5.8 °C -13.3 °C 33924.3 hPa SW 23.8 km/h 23.8 km/h 42 % 0 mm
14:07 -5.7 °C -13.2 °C 33924.3 hPa West 17.9 km/h 17.9 km/h 42 % 0 mm
14:12 -5.7 °C -13.2 °C 33924.3 hPa West 17.9 km/h 17.9 km/h 42 % 0 mm
14:17 -5.7 °C -13.4 °C 33924.3 hPa West 17.9 km/h 17.9 km/h 41 % 0 mm
14:22 -5.4 °C -12.9 °C 33924.3 hPa West 20.9 km/h 20.9 km/h 42 % 0 mm
14:27 -5.4 °C -13.2 °C 33924.3 hPa West 31.4 km/h 31.4 km/h 41 % 0 mm
14:32 -5.8 °C -13.3 °C 33924.3 hPa SSW 15 km/h 15 km/h 42 % 0 mm
14:37 -5.6 °C -13.1 °C 33924.3 hPa West 17.9 km/h 17.9 km/h 42 % 0 mm
14:42 -6.1 °C -13.3 °C 33924.3 hPa WSW 15 km/h 15 km/h 43 % 0 mm
14:47 -6.2 °C -13.2 °C 33924.3 hPa WSW 15 km/h 15 km/h 44 % 0 mm
14:52 -6.1 °C -13.2 °C 33924.3 hPa WSW 11.9 km/h 11.9 km/h 44 % 0 mm
14:57 -6.2 °C -12.9 °C 33924.3 hPa WSW 9 km/h 9.3 km/h 46 % 0 mm
15:02 -6.3 °C -12.9 °C 33924.3 hPa WSW 16.1 km/h 16.1 km/h 46 % 0 mm
15:07 -6.2 °C -12.9 °C 33924.3 hPa West 6.3 km/h 6.3 km/h 46 % 0 mm
15:12 -6.3 °C -12.8 °C 33924.3 hPa SSW 17.9 km/h 17.9 km/h 47 % 0 mm
15:17 -6.2 °C -12.7 °C 33924.3 hPa West 17.9 km/h 17.9 km/h 47 % 0 mm
15:22 -6.2 °C -12.7 °C 33924.3 hPa WSW 32.8 km/h 32.8 km/h 47 % 0 mm
15:27 -6.2 °C -12.7 °C 33924.3 hPa WSW 20.9 km/h 20.9 km/h 47 % 0 mm
15:32 -6.3 °C -12.8 °C 33924.3 hPa WNW 19.2 km/h 19.2 km/h 47 % 0 mm
15:37 -6.3 °C -12.6 °C 33924.3 hPa WSW 9 km/h 9 km/h 48 % 0 mm
15:42 -6.1 °C -12.6 °C 33924.3 hPa WNW 15 km/h 15 km/h 47 % 0 mm
15:47 -5.9 °C -12.5 °C 33924.3 hPa WSW 9.8 km/h 9.8 km/h 47 % 0 mm
15:52 -6.1 °C -12.8 °C 33924.3 hPa West 32.8 km/h 32.8 km/h 46 % 0 mm
15:57 -6 °C -12.7 °C 33924.3 hPa West 44.7 km/h 44.7 km/h 46 % 0 mm
16:02 -6.2 °C -12.7 °C 33924.3 hPa West 12.7 km/h 12.7 km/h 47 % 0 mm
16:07 -6.2 °C -12.7 °C 33924.3 hPa SW 15.6 km/h 15.6 km/h 47 % 0 mm
16:12 -6.1 °C -12.8 °C 33924.3 hPa WSW 18.3 km/h 18.3 km/h 46 % 0 mm
16:17 -6.2 °C -12.7 °C 33924.3 hPa WSW 31.4 km/h 31.4 km/h 47 % 0 mm
16:22 -6.2 °C -12.7 °C 33924.3 hPa WSW 15 km/h 15 km/h 47 % 0 mm
16:27 -6.2 °C -12.9 °C 33924.3 hPa West 17.9 km/h 17.9 km/h 46 % 0 mm
16:32 -6 °C -12.7 °C 33924.3 hPa SW 29.8 km/h 29.8 km/h 46 % 0 mm
16:37 -5.9 °C -12.7 °C 33890.5 hPa WSW 16.1 km/h 16.1 km/h 46 % 0 mm
16:42 -6 °C -12.7 °C 33890.5 hPa West 16.1 km/h 16.1 km/h 46 % 0 mm
16:47 -6 °C -12.9 °C 33890.5 hPa NW 15 km/h 15 km/h 45 % 0 mm
16:52 -5.8 °C -12.7 °C 33890.5 hPa WNW 20.9 km/h 20.9 km/h 45 % 0 mm
16:57 -6.1 °C -13.1 °C 33890.5 hPa WNW 15 km/h 15 km/h 44 % 0 mm
17:02 -6 °C -13.1 °C 33890.5 hPa West 15 km/h 15 km/h 44 % 0 mm
17:07 -5.9 °C -13 °C 33890.5 hPa West 15.6 km/h 15.6 km/h 44 % 0 mm
17:12 -5.8 °C -13.1 °C 33890.5 hPa WSW 15.6 km/h 15.6 km/h 43 % 0 mm
17:17 -5.8 °C -13.3 °C 33890.5 hPa WSW 15 km/h 15 km/h 42 % 0 mm
17:27 -5.9 °C -13.4 °C 33890.5 hPa SW 11.9 km/h 11.9 km/h 42 % 0 mm
17:32 -6 °C -13.4 °C 33890.5 hPa WSW 19.2 km/h 19.2 km/h 42 % 0 mm
17:37 -6.2 °C -13.4 °C 33890.5 hPa WSW 17.9 km/h 17.9 km/h 43 % 0 mm
17:42 -6.3 °C -13.6 °C 33890.5 hPa WSW 11.9 km/h 11.9 km/h 43 % 0 mm
17:47 -6.5 °C -13.7 °C 33890.5 hPa WSW 11.9 km/h 11.9 km/h 43 % 0 mm
17:52 -6.6 °C -13.8 °C 33890.5 hPa SW 27.7 km/h 27.7 km/h 43 % 0 mm
17:57 -6.6 °C -13.8 °C 33890.5 hPa West 11.1 km/h 11.1 km/h 43 % 0 mm
18:02 -6.7 °C -13.8 °C 33890.5 hPa WSW 9 km/h 9 km/h 43 % 0 mm
18:07 -6.7 °C -13.9 °C 33890.5 hPa West 8 km/h 8 km/h 43 % 0 mm
18:17 -6.8 °C -14 °C 33890.5 hPa WSW 20.9 km/h 20.9 km/h 43 % 0 mm
18:22 -6.8 °C -14 °C 33890.5 hPa SW 19.6 km/h 19.6 km/h 43 % 0 mm
18:27 -6.8 °C -14 °C 33890.5 hPa SW 15 km/h 15 km/h 43 % 0 mm
18:32 -6.8 °C -14 °C 33890.5 hPa WSW 16.1 km/h 16.1 km/h 43 % 0 mm
18:37 -6.9 °C -14.1 °C 33890.5 hPa SW 16.1 km/h 16.1 km/h 43 % 0 mm
18:42 -6.9 °C -14.1 °C 33890.5 hPa West 15.3 km/h 15.3 km/h 43 % 0 mm
18:47 -6.9 °C -14.1 °C 33890.5 hPa WSW 17.9 km/h 17.9 km/h 43 % 0 mm
18:52 -6.9 °C -14.1 °C 33890.5 hPa West 15 km/h 15 km/h 43 % 0 mm
18:57 -6.9 °C -14.1 °C 33890.5 hPa SW 17.9 km/h 17.9 km/h 43 % 0 mm
19:02 -6.9 °C -14.1 °C 33890.5 hPa WSW 17.9 km/h 17.9 km/h 43 % 0 mm
19:07 -6.9 °C -14.1 °C 33890.5 hPa WSW 14.5 km/h 14.5 km/h 43 % 0 mm
19:12 -7.1 °C -14.1 °C 33890.5 hPa WSW 26.9 km/h 26.9 km/h 44 % 0 mm
19:17 -7.2 °C -14 °C 33890.5 hPa WSW 32.8 km/h 32.8 km/h 45 % 0 mm
19:22 -7.4 °C -14 °C 33924.3 hPa WSW 30.6 km/h 30.6 km/h 46 % 0 mm
19:27 -7.6 °C -13.9 °C 33924.3 hPa WNW 15 km/h 15 km/h 47 % 0 mm
19:32 -7.7 °C -13.9 °C 33924.3 hPa WSW 17.9 km/h 17.9 km/h 48 % 0 mm
19:37 -7.8 °C -13.8 °C 33924.3 hPa West 20.3 km/h 20.3 km/h 49 % 0 mm
19:42 -7.9 °C -14 °C 33924.3 hPa West 15 km/h 15 km/h 49 % 0 mm
19:47 -8.1 °C -13.9 °C 33924.3 hPa West 15 km/h 15 km/h 50 % 0 mm
19:52 -8.2 °C -14.1 °C 33924.3 hPa WSW 15 km/h 15 km/h 50 % 0 mm
19:57 -8.3 °C -14.1 °C 33924.3 hPa SW 17.9 km/h 17.9 km/h 50 % 0 mm
20:02 -8.3 °C -13.8 °C 33924.3 hPa SW 15 km/h 15 km/h 52 % 0 mm
20:07 -8.5 °C -13.6 °C 33924.3 hPa WNW 15 km/h 15 km/h 55 % 0 mm
20:12 -8.6 °C -13.5 °C 33924.3 hPa WSW 15 km/h 15 km/h 56 % 0 mm
20:17 -8.7 °C -13.4 °C 33924.3 hPa South 9 km/h 9 km/h 57 % 0 mm
20:22 -8.8 °C -13.5 °C 33890.5 hPa WSW 5.1 km/h 5.1 km/h 57 % 0 mm
20:27 -8.8 °C -13.6 °C 33890.5 hPa WSW 9 km/h 9 km/h 57 % 0 mm
20:32 -8.9 °C -13.5 °C 33890.5 hPa WSW 9 km/h 9 km/h 58 % 0 mm
20:37 -8.9 °C -13.5 °C 33890.5 hPa WSW 7.6 km/h 7.6 km/h 58 % 0 mm
20:42 -8.9 °C -13.4 °C 33890.5 hPa West 9 km/h 9 km/h 59 % 0 mm
20:47 -8.9 °C -13.4 °C 33890.5 hPa WNW 6 km/h 6 km/h 59 % 0 mm
20:52 -8.9 °C -13.4 °C 33856.6 hPa West 9.3 km/h 9.3 km/h 59 % 0 mm
20:57 -8.9 °C -13.2 °C 33856.6 hPa WNW 9 km/h 9 km/h 60 % 0 mm
21:02 -8.9 °C -13.1 °C 33856.6 hPa WSW 9 km/h 9 km/h 61 % 0 mm
21:07 -9 °C -13.2 °C 33890.5 hPa WSW 12.2 km/h 12.2 km/h 61 % 0 mm
21:12 -9.1 °C -13.1 °C 33890.5 hPa SW 9 km/h 9 km/h 62 % 0 mm
21:17 -9.1 °C -13.1 °C 33890.5 hPa West 11.9 km/h 11.9 km/h 62 % 0 mm
21:22 -9.1 °C -13.1 °C 33856.6 hPa WSW 9 km/h 9 km/h 62 % 0 mm
21:27 -9.1 °C -13 °C 33856.6 hPa SW 12.2 km/h 12.2 km/h 63 % 0 mm
21:32 -9.2 °C -12.8 °C 33856.6 hPa SW 15 km/h 15 km/h 65 % 0 mm
21:37 -9.3 °C -12.8 °C 33788.9 hPa SW 15 km/h 15 km/h 66 % 0 mm
21:42 -9.4 °C -12.9 °C 33788.9 hPa SSW 7.6 km/h 7.6 km/h 66 % 0 mm
21:47 -9.4 °C -12.8 °C 33788.9 hPa SSW 9 km/h 9 km/h 67 % 0 mm
21:52 -9.4 °C -12.8 °C 33856.6 hPa West 15.6 km/h 15.6 km/h 67 % 0 mm
21:57 -9.4 °C -12.8 °C 33856.6 hPa West 6.8 km/h 6.8 km/h 67 % 0 mm
22:07 -9.4 °C -12.8 °C 33822.8 hPa West 9 km/h 9 km/h 67 % 0 mm
22:12 -9.4 °C -12.7 °C 33822.8 hPa WSW 6 km/h 6 km/h 68 % 0 mm
22:17 -9.6 °C -12.7 °C 33822.8 hPa WSW 6 km/h 6 km/h 69 % 0 mm
22:22 -9.6 °C -12.7 °C 33822.8 hPa WSW 6 km/h 6 km/h 69 % 0 mm
22:27 -9.7 °C -12.8 °C 33822.8 hPa WSW 3.1 km/h   69 % 0 mm
22:32 -9.7 °C -12.7 °C 33822.8 hPa SW 3.1 km/h   70 % 0 mm
22:37 -9.7 °C -12.8 °C 33788.9 hPa West 6 km/h 6 km/h 69 % 0 mm
22:42 -9.7 °C -12.7 °C 33788.9 hPa SW 6 km/h 6 km/h 70 % 0 mm
22:52 -10.1 °C -12.7 °C 33822.8 hPa WSW 9 km/h 9 km/h 73 % 0 mm
22:57 -10.6 °C -12.9 °C 33822.8 hPa WSW 9 km/h 9 km/h 76 % 0 mm
23:02 -10.8 °C -12.9 °C 33822.8 hPa WNW 6 km/h 7.6 km/h 77 % 0 mm
23:07 -11 °C -13.2 °C 33822.8 hPa WNW 6 km/h 7.6 km/h 77 % 0 mm
23:12 -11.1 °C -13.3 °C 33822.8 hPa SW 7.6 km/h 7.6 km/h 77 % 76.2 mm
Meteo Sesrovires
Elogis d' Weather Underground - 3.25 mb

Guio original per  Jim McMurry - jmcmurry@mwt.net Adaptat per a la plantilla per  Wim van der Kuil - Leuven-Template.eu

Trobareu la nostra informacio del temps tambe a:

Weather Underground

AWEKAS